sensor_id;sensor_type;location;lat;lon;timestamp;P1;durP1;ratioP1;P2;durP2;ratioP2
48363;SDS011;34170;54.364;18.582;2023-06-22T00:00:26;9.18;;;6.45;;
48363;SDS011;34170;54.364;18.582;2023-06-22T00:03:14;9.27;;;6.15;;
48363;SDS011;34170;54.364;18.582;2023-06-22T00:05:43;8.52;;;6.30;;
48363;SDS011;34170;54.364;18.582;2023-06-22T00:08:10;8.18;;;5.60;;
48363;SDS011;34170;54.364;18.582;2023-06-22T00:10:38;9.25;;;5.85;;
48363;SDS011;34170;54.364;18.582;2023-06-22T00:13:06;6.80;;;5.88;;
48363;SDS011;34170;54.364;18.582;2023-06-22T00:15:37;11.02;;;6.72;;
48363;SDS011;34170;54.364;18.582;2023-06-22T00:18:06;9.38;;;6.45;;
48363;SDS011;34170;54.364;18.582;2023-06-22T00:20:35;9.23;;;6.15;;
48363;SDS011;34170;54.364;18.582;2023-06-22T00:23:06;9.05;;;6.18;;
48363;SDS011;34170;54.364;18.582;2023-06-22T00:25:37;11.75;;;6.25;;
48363;SDS011;34170;54.364;18.582;2023-06-22T00:28:07;6.85;;;5.80;;
48363;SDS011;34170;54.364;18.582;2023-06-22T00:30:35;9.85;;;6.43;;
48363;SDS011;34170;54.364;18.582;2023-06-22T00:33:03;9.10;;;6.60;;
48363;SDS011;34170;54.364;18.582;2023-06-22T00:35:32;7.05;;;6.13;;
48363;SDS011;34170;54.364;18.582;2023-06-22T00:38:01;8.27;;;5.95;;
48363;SDS011;34170;54.364;18.582;2023-06-22T00:40:30;7.00;;;5.45;;
48363;SDS011;34170;54.364;18.582;2023-06-22T00:42:59;12.35;;;7.72;;
48363;SDS011;34170;54.364;18.582;2023-06-22T00:45:27;10.63;;;6.95;;
48363;SDS011;34170;54.364;18.582;2023-06-22T00:47:56;9.00;;;6.55;;
48363;SDS011;34170;54.364;18.582;2023-06-22T00:50:26;9.05;;;6.18;;
48363;SDS011;34170;54.364;18.582;2023-06-22T00:52:57;8.35;;;6.72;;
48363;SDS011;34170;54.364;18.582;2023-06-22T00:55:27;9.88;;;6.78;;
48363;SDS011;34170;54.364;18.582;2023-06-22T00:57:56;9.55;;;7.07;;
48363;SDS011;34170;54.364;18.582;2023-06-22T01:00:24;11.48;;;6.45;;
48363;SDS011;34170;54.364;18.582;2023-06-22T01:02:53;13.32;;;7.25;;
48363;SDS011;34170;54.364;18.582;2023-06-22T01:05:22;12.32;;;7.22;;
48363;SDS011;34170;54.364;18.582;2023-06-22T01:08:04;10.82;;;7.00;;
48363;SDS011;34170;54.364;18.582;2023-06-22T01:16:26;13.10;;;6.80;;
48363;SDS011;34170;54.364;18.582;2023-06-22T01:18:57;10.63;;;6.78;;
48363;SDS011;34170;54.364;18.582;2023-06-22T01:21:28;11.38;;;7.65;;
48363;SDS011;34170;54.364;18.582;2023-06-22T01:24:07;11.57;;;7.07;;
48363;SDS011;34170;54.364;18.582;2023-06-22T01:27:18;12.77;;;7.28;;
48363;SDS011;34170;54.364;18.582;2023-06-22T01:29:56;8.60;;;6.57;;
48363;SDS011;34170;54.364;18.582;2023-06-22T01:32:30;9.95;;;6.53;;
48363;SDS011;34170;54.364;18.582;2023-06-22T01:35:01;9.00;;;6.65;;
48363;SDS011;34170;54.364;18.582;2023-06-22T01:37:34;9.73;;;6.57;;
48363;SDS011;34170;54.364;18.582;2023-06-22T01:40:04;10.40;;;6.20;;
48363;SDS011;34170;54.364;18.582;2023-06-22T01:42:33;12.20;;;7.13;;
48363;SDS011;34170;54.364;18.582;2023-06-22T01:45:02;10.90;;;7.05;;
48363;SDS011;34170;54.364;18.582;2023-06-22T01:47:31;12.35;;;7.40;;
48363;SDS011;34170;54.364;18.582;2023-06-22T01:50:00;13.43;;;8.23;;
48363;SDS011;34170;54.364;18.582;2023-06-22T01:52:28;11.35;;;7.72;;
48363;SDS011;34170;54.364;18.582;2023-06-22T01:54:56;11.43;;;7.70;;
48363;SDS011;34170;54.364;18.582;2023-06-22T01:57:25;13.65;;;7.90;;
48363;SDS011;34170;54.364;18.582;2023-06-22T01:59:58;10.55;;;7.47;;
48363;SDS011;34170;54.364;18.582;2023-06-22T02:05:34;12.85;;;7.18;;
48363;SDS011;34170;54.364;18.582;2023-06-22T02:08:13;12.55;;;7.70;;
48363;SDS011;34170;54.364;18.582;2023-06-22T02:13:16;14.50;;;8.98;;
48363;SDS011;34170;54.364;18.582;2023-06-22T02:15:45;15.68;;;10.40;;
48363;SDS011;34170;54.364;18.582;2023-06-22T02:18:14;17.30;;;8.82;;
48363;SDS011;34170;54.364;18.582;2023-06-22T02:20:42;14.02;;;8.57;;
48363;SDS011;34170;54.364;18.582;2023-06-22T02:23:10;17.10;;;8.57;;
48363;SDS011;34170;54.364;18.582;2023-06-22T02:25:37;13.77;;;8.38;;
48363;SDS011;34170;54.364;18.582;2023-06-22T02:28:05;19.60;;;8.95;;
48363;SDS011;34170;54.364;18.582;2023-06-22T02:30:33;13.88;;;9.45;;
48363;SDS011;34170;54.364;18.582;2023-06-22T02:33:01;18.02;;;9.63;;
48363;SDS011;34170;54.364;18.582;2023-06-22T02:35:29;13.57;;;9.00;;
48363;SDS011;34170;54.364;18.582;2023-06-22T02:37:59;12.88;;;8.15;;
48363;SDS011;34170;54.364;18.582;2023-06-22T02:40:29;12.60;;;8.68;;
48363;SDS011;34170;54.364;18.582;2023-06-22T02:42:58;15.70;;;10.60;;
48363;SDS011;34170;54.364;18.582;2023-06-22T02:47:58;17.33;;;11.98;;
48363;SDS011;34170;54.364;18.582;2023-06-22T02:50:26;15.93;;;10.63;;
48363;SDS011;34170;54.364;18.582;2023-06-22T02:52:54;12.93;;;9.95;;
48363;SDS011;34170;54.364;18.582;2023-06-22T02:55:22;18.55;;;11.15;;
48363;SDS011;34170;54.364;18.582;2023-06-22T02:57:55;15.73;;;11.45;;
48363;SDS011;34170;54.364;18.582;2023-06-22T03:00:25;16.48;;;10.77;;
48363;SDS011;34170;54.364;18.582;2023-06-22T03:02:59;18.17;;;12.10;;
48363;SDS011;34170;54.364;18.582;2023-06-22T03:05:27;20.02;;;11.52;;
48363;SDS011;34170;54.364;18.582;2023-06-22T03:07:57;18.10;;;11.77;;
48363;SDS011;34170;54.364;18.582;2023-06-22T03:10:25;17.98;;;11.10;;
48363;SDS011;34170;54.364;18.582;2023-06-22T03:12:54;19.80;;;10.75;;
48363;SDS011;34170;54.364;18.582;2023-06-22T03:15:22;20.25;;;11.23;;
48363;SDS011;34170;54.364;18.582;2023-06-22T03:17:51;22.13;;;13.60;;
48363;SDS011;34170;54.364;18.582;2023-06-22T03:20:18;13.52;;;10.23;;
48363;SDS011;34170;54.364;18.582;2023-06-22T03:22:46;13.73;;;9.77;;
48363;SDS011;34170;54.364;18.582;2023-06-22T03:25:16;16.38;;;9.60;;
48363;SDS011;34170;54.364;18.582;2023-06-22T03:27:46;15.80;;;10.10;;
48363;SDS011;34170;54.364;18.582;2023-06-22T03:30:15;12.65;;;8.60;;
48363;SDS011;34170;54.364;18.582;2023-06-22T03:32:43;12.90;;;8.35;;
48363;SDS011;34170;54.364;18.582;2023-06-22T03:35:10;13.18;;;8.18;;
48363;SDS011;34170;54.364;18.582;2023-06-22T03:37:41;9.87;;;7.77;;
48363;SDS011;34170;54.364;18.582;2023-06-22T03:40:09;14.20;;;8.30;;
48363;SDS011;34170;54.364;18.582;2023-06-22T03:42:37;11.60;;;7.10;;
48363;SDS011;34170;54.364;18.582;2023-06-22T03:45:05;12.32;;;7.75;;
48363;SDS011;34170;54.364;18.582;2023-06-22T03:47:33;14.35;;;8.07;;
48363;SDS011;34170;54.364;18.582;2023-06-22T03:50:01;12.88;;;7.40;;
48363;SDS011;34170;54.364;18.582;2023-06-22T03:52:32;14.52;;;8.27;;
48363;SDS011;34170;54.364;18.582;2023-06-22T03:55:00;10.00;;;6.13;;
48363;SDS011;34170;54.364;18.582;2023-06-22T03:57:28;9.35;;;5.93;;
48363;SDS011;34170;54.364;18.582;2023-06-22T03:59:56;10.82;;;6.25;;
48363;SDS011;34170;54.364;18.582;2023-06-22T04:02:25;8.90;;;5.85;;
48363;SDS011;34170;54.364;18.582;2023-06-22T04:04:53;7.15;;;5.45;;
48363;SDS011;34170;54.364;18.582;2023-06-22T04:07:21;7.53;;;5.20;;
48363;SDS011;34170;54.364;18.582;2023-06-22T04:09:49;10.23;;;5.72;;
48363;SDS011;34170;54.364;18.582;2023-06-22T04:12:16;9.65;;;6.40;;
48363;SDS011;34170;54.364;18.582;2023-06-22T04:14:44;9.23;;;5.78;;
48363;SDS011;34170;54.364;18.582;2023-06-22T04:17:12;10.68;;;6.85;;
48363;SDS011;34170;54.364;18.582;2023-06-22T04:19:41;9.68;;;6.47;;
48363;SDS011;34170;54.364;18.582;2023-06-22T04:22:09;10.95;;;6.57;;
48363;SDS011;34170;54.364;18.582;2023-06-22T04:24:37;7.78;;;5.75;;
48363;SDS011;34170;54.364;18.582;2023-06-22T04:27:05;9.73;;;5.70;;
48363;SDS011;34170;54.364;18.582;2023-06-22T04:29:32;10.50;;;6.05;;
48363;SDS011;34170;54.364;18.582;2023-06-22T04:32:00;8.57;;;6.05;;
48363;SDS011;34170;54.364;18.582;2023-06-22T04:34:32;8.40;;;5.60;;
48363;SDS011;34170;54.364;18.582;2023-06-22T04:37:00;7.13;;;5.43;;
48363;SDS011;34170;54.364;18.582;2023-06-22T04:39:28;8.10;;;5.93;;
48363;SDS011;34170;54.364;18.582;2023-06-22T04:41:55;9.65;;;5.68;;
48363;SDS011;34170;54.364;18.582;2023-06-22T04:44:27;9.90;;;5.95;;
48363;SDS011;34170;54.364;18.582;2023-06-22T04:46:56;10.18;;;6.15;;
48363;SDS011;34170;54.364;18.582;2023-06-22T04:49:30;8.70;;;5.72;;
48363;SDS011;34170;54.364;18.582;2023-06-22T04:52:02;7.78;;;5.25;;
48363;SDS011;34170;54.364;18.582;2023-06-22T04:54:31;11.25;;;5.55;;
48363;SDS011;34170;54.364;18.582;2023-06-22T04:57:02;9.75;;;5.60;;
48363;SDS011;34170;54.364;18.582;2023-06-22T04:59:32;9.18;;;6.07;;
48363;SDS011;34170;54.364;18.582;2023-06-22T05:02:00;7.65;;;5.28;;
48363;SDS011;34170;54.364;18.582;2023-06-22T05:04:29;10.13;;;6.05;;
48363;SDS011;34170;54.364;18.582;2023-06-22T05:06:59;7.82;;;5.82;;
48363;SDS011;34170;54.364;18.582;2023-06-22T05:09:27;10.30;;;5.43;;
48363;SDS011;34170;54.364;18.582;2023-06-22T05:11:56;8.23;;;5.78;;
48363;SDS011;34170;54.364;18.582;2023-06-22T05:14:24;9.13;;;5.68;;
48363;SDS011;34170;54.364;18.582;2023-06-22T05:16:52;9.70;;;5.53;;
48363;SDS011;34170;54.364;18.582;2023-06-22T05:19:19;7.93;;;5.05;;
48363;SDS011;34170;54.364;18.582;2023-06-22T05:21:47;8.15;;;4.97;;
48363;SDS011;34170;54.364;18.582;2023-06-22T05:24:15;7.72;;;4.80;;
48363;SDS011;34170;54.364;18.582;2023-06-22T05:26:42;7.82;;;4.07;;
48363;SDS011;34170;54.364;18.582;2023-06-22T05:29:10;8.35;;;4.55;;
48363;SDS011;34170;54.364;18.582;2023-06-22T05:31:38;7.35;;;4.00;;
48363;SDS011;34170;54.364;18.582;2023-06-22T05:34:07;6.35;;;4.03;;
48363;SDS011;34170;54.364;18.582;2023-06-22T05:36:35;5.88;;;3.75;;
48363;SDS011;34170;54.364;18.582;2023-06-22T05:39:10;9.63;;;3.80;;
48363;SDS011;34170;54.364;18.582;2023-06-22T05:41:41;6.10;;;3.53;;
48363;SDS011;34170;54.364;18.582;2023-06-22T05:44:10;5.32;;;3.13;;
48363;SDS011;34170;54.364;18.582;2023-06-22T05:46:42;6.60;;;3.42;;
48363;SDS011;34170;54.364;18.582;2023-06-22T05:49:12;8.73;;;3.55;;
48363;SDS011;34170;54.364;18.582;2023-06-22T05:51:41;7.40;;;2.90;;
48363;SDS011;34170;54.364;18.582;2023-06-22T05:54:09;4.95;;;2.50;;
48363;SDS011;34170;54.364;18.582;2023-06-22T05:56:37;5.70;;;2.88;;
48363;SDS011;34170;54.364;18.582;2023-06-22T05:59:05;4.22;;;2.10;;
48363;SDS011;34170;54.364;18.582;2023-06-22T06:01:33;4.95;;;2.47;;
48363;SDS011;34170;54.364;18.582;2023-06-22T06:04:02;6.63;;;2.50;;
48363;SDS011;34170;54.364;18.582;2023-06-22T06:06:31;4.40;;;2.20;;
48363;SDS011;34170;54.364;18.582;2023-06-22T06:08:59;5.25;;;2.47;;
48363;SDS011;34170;54.364;18.582;2023-06-22T06:11:27;3.60;;;2.25;;
48363;SDS011;34170;54.364;18.582;2023-06-22T06:13:54;6.45;;;2.08;;
48363;SDS011;34170;54.364;18.582;2023-06-22T06:16:22;6.35;;;2.08;;
48363;SDS011;34170;54.364;18.582;2023-06-22T06:18:50;5.97;;;2.15;;
48363;SDS011;34170;54.364;18.582;2023-06-22T06:21:18;6.10;;;1.95;;
48363;SDS011;34170;54.364;18.582;2023-06-22T06:23:45;4.45;;;1.90;;
48363;SDS011;34170;54.364;18.582;2023-06-22T06:26:14;5.60;;;2.00;;
48363;SDS011;34170;54.364;18.582;2023-06-22T06:28:43;2.38;;;1.60;;
48363;SDS011;34170;54.364;18.582;2023-06-22T06:31:11;4.07;;;1.60;;
48363;SDS011;34170;54.364;18.582;2023-06-22T06:33:39;4.28;;;2.17;;
48363;SDS011;34170;54.364;18.582;2023-06-22T06:36:07;4.43;;;1.83;;
48363;SDS011;34170;54.364;18.582;2023-06-22T06:38:35;5.25;;;1.35;;
48363;SDS011;34170;54.364;18.582;2023-06-22T06:41:04;4.93;;;1.77;;
48363;SDS011;34170;54.364;18.582;2023-06-22T06:43:31;2.97;;;1.75;;
48363;SDS011;34170;54.364;18.582;2023-06-22T06:45:59;2.72;;;1.50;;
48363;SDS011;34170;54.364;18.582;2023-06-22T06:48:26;4.38;;;1.70;;
48363;SDS011;34170;54.364;18.582;2023-06-22T06:50:54;4.88;;;1.75;;
48363;SDS011;34170;54.364;18.582;2023-06-22T06:53:22;4.07;;;1.73;;
48363;SDS011;34170;54.364;18.582;2023-06-22T06:55:50;4.50;;;1.60;;
48363;SDS011;34170;54.364;18.582;2023-06-22T06:58:17;4.78;;;1.55;;
48363;SDS011;34170;54.364;18.582;2023-06-22T07:00:45;3.97;;;1.80;;
48363;SDS011;34170;54.364;18.582;2023-06-22T07:03:13;4.25;;;1.60;;
48363;SDS011;34170;54.364;18.582;2023-06-22T07:05:41;4.05;;;1.55;;
48363;SDS011;34170;54.364;18.582;2023-06-22T07:08:08;3.33;;;1.75;;
48363;SDS011;34170;54.364;18.582;2023-06-22T07:10:36;4.07;;;1.42;;
48363;SDS011;34170;54.364;18.582;2023-06-22T07:13:04;4.45;;;1.35;;
48363;SDS011;34170;54.364;18.582;2023-06-22T07:15:32;2.65;;;1.42;;
48363;SDS011;34170;54.364;18.582;2023-06-22T07:17:59;3.13;;;1.40;;
48363;SDS011;34170;54.364;18.582;2023-06-22T07:20:27;5.47;;;1.45;;
48363;SDS011;34170;54.364;18.582;2023-06-22T07:22:55;4.60;;;1.48;;
48363;SDS011;34170;54.364;18.582;2023-06-22T07:25:23;3.38;;;1.60;;
48363;SDS011;34170;54.364;18.582;2023-06-22T07:28:00;2.05;;;1.30;;
48363;SDS011;34170;54.364;18.582;2023-06-22T07:30:29;2.75;;;1.30;;
48363;SDS011;34170;54.364;18.582;2023-06-22T07:32:59;4.57;;;1.60;;
48363;SDS011;34170;54.364;18.582;2023-06-22T07:35:32;3.92;;;1.40;;
48363;SDS011;34170;54.364;18.582;2023-06-22T07:38:00;5.70;;;1.60;;
48363;SDS011;34170;54.364;18.582;2023-06-22T07:40:32;3.58;;;1.52;;
48363;SDS011;34170;54.364;18.582;2023-06-22T07:43:01;4.60;;;1.60;;
48363;SDS011;34170;54.364;18.582;2023-06-22T07:45:29;7.10;;;1.60;;
48363;SDS011;34170;54.364;18.582;2023-06-22T07:47:57;10.75;;;2.33;;
48363;SDS011;34170;54.364;18.582;2023-06-22T07:50:25;3.65;;;1.77;;
48363;SDS011;34170;54.364;18.582;2023-06-22T07:52:53;3.40;;;1.38;;
48363;SDS011;34170;54.364;18.582;2023-06-22T07:55:20;3.10;;;1.85;;
48363;SDS011;34170;54.364;18.582;2023-06-22T07:57:48;6.47;;;1.38;;
48363;SDS011;34170;54.364;18.582;2023-06-22T08:00:16;3.60;;;2.03;;
48363;SDS011;34170;54.364;18.582;2023-06-22T08:02:45;3.40;;;1.80;;
48363;SDS011;34170;54.364;18.582;2023-06-22T08:05:14;4.60;;;1.70;;
48363;SDS011;34170;54.364;18.582;2023-06-22T08:07:45;8.40;;;1.90;;
48363;SDS011;34170;54.364;18.582;2023-06-22T08:10:15;5.10;;;1.80;;
48363;SDS011;34170;54.364;18.582;2023-06-22T08:12:42;3.25;;;1.77;;
48363;SDS011;34170;54.364;18.582;2023-06-22T08:15:10;8.60;;;2.75;;
48363;SDS011;34170;54.364;18.582;2023-06-22T08:17:38;9.27;;;2.60;;
48363;SDS011;34170;54.364;18.582;2023-06-22T08:20:07;156.25;;;17.13;;
48363;SDS011;34170;54.364;18.582;2023-06-22T08:22:44;10.75;;;2.63;;
48363;SDS011;34170;54.364;18.582;2023-06-22T08:25:12;5.82;;;2.03;;
48363;SDS011;34170;54.364;18.582;2023-06-22T08:27:40;3.97;;;1.65;;
48363;SDS011;34170;54.364;18.582;2023-06-22T08:30:12;5.15;;;1.55;;
48363;SDS011;34170;54.364;18.582;2023-06-22T08:32:39;8.43;;;2.05;;
48363;SDS011;34170;54.364;18.582;2023-06-22T08:35:07;4.93;;;1.77;;
48363;SDS011;34170;54.364;18.582;2023-06-22T08:37:36;19.88;;;3.38;;
48363;SDS011;34170;54.364;18.582;2023-06-22T08:40:05;4.13;;;1.83;;
48363;SDS011;34170;54.364;18.582;2023-06-22T08:42:36;3.22;;;1.40;;
48363;SDS011;34170;54.364;18.582;2023-06-22T08:45:05;4.82;;;1.38;;
48363;SDS011;34170;54.364;18.582;2023-06-22T08:47:33;4.68;;;1.40;;
48363;SDS011;34170;54.364;18.582;2023-06-22T08:50:01;4.63;;;1.40;;
48363;SDS011;34170;54.364;18.582;2023-06-22T08:55:00;3.17;;;1.35;;
48363;SDS011;34170;54.364;18.582;2023-06-22T08:57:27;4.95;;;1.52;;
48363;SDS011;34170;54.364;18.582;2023-06-22T08:59:56;3.65;;;1.48;;
48363;SDS011;34170;54.364;18.582;2023-06-22T09:02:27;4.72;;;1.63;;
48363;SDS011;34170;54.364;18.582;2023-06-22T09:04:59;2.53;;;1.45;;
48363;SDS011;34170;54.364;18.582;2023-06-22T09:07:32;3.97;;;1.80;;
48363;SDS011;34170;54.364;18.582;2023-06-22T09:10:03;2.75;;;1.70;;
48363;SDS011;34170;54.364;18.582;2023-06-22T09:12:34;4.13;;;1.55;;
48363;SDS011;34170;54.364;18.582;2023-06-22T09:15:04;4.78;;;1.80;;
48363;SDS011;34170;54.364;18.582;2023-06-22T09:17:38;1.90;;;1.27;;
48363;SDS011;34170;54.364;18.582;2023-06-22T09:20:08;3.35;;;1.48;;
48363;SDS011;34170;54.364;18.582;2023-06-22T09:22:38;3.45;;;1.48;;
48363;SDS011;34170;54.364;18.582;2023-06-22T09:25:06;1.73;;;1.10;;
48363;SDS011;34170;54.364;18.582;2023-06-22T09:27:34;2.63;;;1.23;;
48363;SDS011;34170;54.364;18.582;2023-06-22T09:30:02;3.03;;;1.30;;
48363;SDS011;34170;54.364;18.582;2023-06-22T09:32:31;4.43;;;1.77;;
48363;SDS011;34170;54.364;18.582;2023-06-22T09:35:01;4.45;;;1.52;;
48363;SDS011;34170;54.364;18.582;2023-06-22T09:37:32;2.65;;;1.25;;
48363;SDS011;34170;54.364;18.582;2023-06-22T09:40:00;12.80;;;2.22;;
48363;SDS011;34170;54.364;18.582;2023-06-22T09:42:29;7.68;;;1.42;;
48363;SDS011;34170;54.364;18.582;2023-06-22T09:44:57;3.13;;;1.30;;
48363;SDS011;34170;54.364;18.582;2023-06-22T09:47:24;2.25;;;1.10;;
48363;SDS011;34170;54.364;18.582;2023-06-22T09:49:52;3.13;;;1.20;;
48363;SDS011;34170;54.364;18.582;2023-06-22T09:52:22;4.47;;;1.47;;
48363;SDS011;34170;54.364;18.582;2023-06-22T09:55:00;5.53;;;1.42;;
48363;SDS011;34170;54.364;18.582;2023-06-22T09:57:28;4.60;;;1.27;;
48363;SDS011;34170;54.364;18.582;2023-06-22T09:59:55;3.40;;;1.40;;
48363;SDS011;34170;54.364;18.582;2023-06-22T10:02:23;4.93;;;1.65;;
48363;SDS011;34170;54.364;18.582;2023-06-22T10:04:51;7.25;;;1.15;;
48363;SDS011;34170;54.364;18.582;2023-06-22T10:07:19;2.67;;;1.40;;
48363;SDS011;34170;54.364;18.582;2023-06-22T10:09:47;2.67;;;1.13;;
48363;SDS011;34170;54.364;18.582;2023-06-22T10:12:15;4.07;;;1.73;;
48363;SDS011;34170;54.364;18.582;2023-06-22T10:14:43;4.20;;;1.48;;
48363;SDS011;34170;54.364;18.582;2023-06-22T10:17:11;2.42;;;1.02;;
48363;SDS011;34170;54.364;18.582;2023-06-22T10:19:38;3.28;;;1.27;;
48363;SDS011;34170;54.364;18.582;2023-06-22T10:22:08;2.50;;;1.23;;
48363;SDS011;34170;54.364;18.582;2023-06-22T10:24:36;8.18;;;2.17;;
48363;SDS011;34170;54.364;18.582;2023-06-22T10:27:05;4.50;;;1.75;;
48363;SDS011;34170;54.364;18.582;2023-06-22T10:29:34;3.40;;;1.40;;
48363;SDS011;34170;54.364;18.582;2023-06-22T10:32:01;2.78;;;1.23;;
48363;SDS011;34170;54.364;18.582;2023-06-22T10:34:29;3.40;;;1.58;;
48363;SDS011;34170;54.364;18.582;2023-06-22T10:36:57;2.70;;;1.15;;
48363;SDS011;34170;54.364;18.582;2023-06-22T10:39:25;4.10;;;1.52;;
48363;SDS011;34170;54.364;18.582;2023-06-22T10:41:53;5.88;;;1.65;;
48363;SDS011;34170;54.364;18.582;2023-06-22T10:44:21;4.63;;;1.40;;
48363;SDS011;34170;54.364;18.582;2023-06-22T10:46:48;2.70;;;1.35;;
48363;SDS011;34170;54.364;18.582;2023-06-22T10:49:16;4.40;;;1.73;;
48363;SDS011;34170;54.364;18.582;2023-06-22T10:51:44;4.00;;;1.48;;
48363;SDS011;34170;54.364;18.582;2023-06-22T10:54:12;4.00;;;1.30;;
48363;SDS011;34170;54.364;18.582;2023-06-22T10:56:40;3.20;;;1.75;;
48363;SDS011;34170;54.364;18.582;2023-06-22T10:59:08;2.35;;;1.30;;
48363;SDS011;34170;54.364;18.582;2023-06-22T11:01:36;8.18;;;1.70;;
48363;SDS011;34170;54.364;18.582;2023-06-22T11:04:04;6.68;;;1.90;;
48363;SDS011;34170;54.364;18.582;2023-06-22T11:06:32;4.85;;;1.33;;
48363;SDS011;34170;54.364;18.582;2023-06-22T11:09:00;3.00;;;1.15;;
48363;SDS011;34170;54.364;18.582;2023-06-22T11:11:30;2.03;;;1.70;;
48363;SDS011;34170;54.364;18.582;2023-06-22T11:13:58;4.93;;;1.38;;
48363;SDS011;34170;54.364;18.582;2023-06-22T11:16:26;4.00;;;2.00;;
48363;SDS011;34170;54.364;18.582;2023-06-22T11:18:54;5.25;;;1.58;;
48363;SDS011;34170;54.364;18.582;2023-06-22T11:21:22;2.20;;;1.42;;
48363;SDS011;34170;54.364;18.582;2023-06-22T11:23:49;4.63;;;1.45;;
48363;SDS011;34170;54.364;18.582;2023-06-22T11:26:17;4.07;;;1.50;;
48363;SDS011;34170;54.364;18.582;2023-06-22T11:28:45;3.25;;;1.30;;
48363;SDS011;34170;54.364;18.582;2023-06-22T11:31:14;3.13;;;1.10;;
48363;SDS011;34170;54.364;18.582;2023-06-22T11:33:53;3.28;;;1.30;;
48363;SDS011;34170;54.364;18.582;2023-06-22T11:36:20;4.32;;;1.40;;
48363;SDS011;34170;54.364;18.582;2023-06-22T11:38:48;2.85;;;1.52;;
48363;SDS011;34170;54.364;18.582;2023-06-22T11:41:16;3.42;;;1.35;;
48363;SDS011;34170;54.364;18.582;2023-06-22T11:43:44;1.75;;;1.27;;
48363;SDS011;34170;54.364;18.582;2023-06-22T11:46:12;2.25;;;1.00;;
48363;SDS011;34170;54.364;18.582;2023-06-22T11:48:40;2.05;;;1.23;;
48363;SDS011;34170;54.364;18.582;2023-06-22T11:51:08;2.47;;;1.40;;
48363;SDS011;34170;54.364;18.582;2023-06-22T11:53:36;1.92;;;1.20;;
48363;SDS011;34170;54.364;18.582;2023-06-22T11:56:03;3.90;;;1.48;;
48363;SDS011;34170;54.364;18.582;2023-06-22T11:58:31;13.00;;;3.08;;
48363;SDS011;34170;54.364;18.582;2023-06-22T12:00:59;8.82;;;2.17;;
48363;SDS011;34170;54.364;18.582;2023-06-22T12:03:27;4.70;;;2.17;;
48363;SDS011;34170;54.364;18.582;2023-06-22T12:05:54;9.57;;;2.20;;
48363;SDS011;34170;54.364;18.582;2023-06-22T12:08:22;5.97;;;2.08;;
48363;SDS011;34170;54.364;18.582;2023-06-22T12:10:50;7.25;;;2.50;;
48363;SDS011;34170;54.364;18.582;2023-06-22T12:13:18;5.15;;;2.55;;
48363;SDS011;34170;54.364;18.582;2023-06-22T12:15:46;9.95;;;3.05;;
48363;SDS011;34170;54.364;18.582;2023-06-22T12:18:13;5.70;;;2.33;;
48363;SDS011;34170;54.364;18.582;2023-06-22T12:20:42;5.75;;;2.50;;
48363;SDS011;34170;54.364;18.582;2023-06-22T12:23:10;4.63;;;1.85;;
48363;SDS011;34170;54.364;18.582;2023-06-22T12:25:37;8.13;;;2.28;;
48363;SDS011;34170;54.364;18.582;2023-06-22T12:28:05;9.27;;;2.20;;
48363;SDS011;34170;54.364;18.582;2023-06-22T12:30:33;8.02;;;2.55;;
48363;SDS011;34170;54.364;18.582;2023-06-22T12:33:01;8.35;;;2.42;;
48363;SDS011;34170;54.364;18.582;2023-06-22T12:35:28;6.35;;;2.70;;
48363;SDS011;34170;54.364;18.582;2023-06-22T12:37:56;4.30;;;2.33;;
48363;SDS011;34170;54.364;18.582;2023-06-22T12:40:24;6.05;;;2.25;;
48363;SDS011;34170;54.364;18.582;2023-06-22T12:42:52;15.45;;;3.63;;
48363;SDS011;34170;54.364;18.582;2023-06-22T12:45:20;10.48;;;2.50;;
48363;SDS011;34170;54.364;18.582;2023-06-22T12:47:49;6.80;;;2.50;;
48363;SDS011;34170;54.364;18.582;2023-06-22T12:50:17;19.85;;;3.50;;
48363;SDS011;34170;54.364;18.582;2023-06-22T12:52:45;12.05;;;2.97;;
48363;SDS011;34170;54.364;18.582;2023-06-22T12:55:12;6.88;;;3.13;;
48363;SDS011;34170;54.364;18.582;2023-06-22T12:57:40;13.13;;;3.10;;
48363;SDS011;34170;54.364;18.582;2023-06-22T13:00:08;7.80;;;2.63;;
48363;SDS011;34170;54.364;18.582;2023-06-22T13:02:37;10.02;;;3.05;;
48363;SDS011;34170;54.364;18.582;2023-06-22T13:05:05;13.45;;;3.72;;
48363;SDS011;34170;54.364;18.582;2023-06-22T13:07:33;87.53;;;8.60;;
48363;SDS011;34170;54.364;18.582;2023-06-22T13:10:01;11.65;;;3.25;;
48363;SDS011;34170;54.364;18.582;2023-06-22T13:12:30;9.75;;;3.30;;
48363;SDS011;34170;54.364;18.582;2023-06-22T13:14:57;9.23;;;3.47;;
48363;SDS011;34170;54.364;18.582;2023-06-22T13:17:26;13.40;;;3.85;;
48363;SDS011;34170;54.364;18.582;2023-06-22T13:19:54;11.50;;;2.72;;
48363;SDS011;34170;54.364;18.582;2023-06-22T13:22:29;12.07;;;3.22;;
48363;SDS011;34170;54.364;18.582;2023-06-22T13:24:59;5.90;;;2.60;;
48363;SDS011;34170;54.364;18.582;2023-06-22T13:27:28;9.70;;;3.25;;
48363;SDS011;34170;54.364;18.582;2023-06-22T13:29:55;11.57;;;2.60;;
48363;SDS011;34170;54.364;18.582;2023-06-22T13:32:23;8.45;;;3.00;;
48363;SDS011;34170;54.364;18.582;2023-06-22T13:34:51;14.13;;;3.13;;
48363;SDS011;34170;54.364;18.582;2023-06-22T13:37:20;12.73;;;3.28;;
48363;SDS011;34170;54.364;18.582;2023-06-22T13:39:47;8.68;;;3.15;;
48363;SDS011;34170;54.364;18.582;2023-06-22T13:42:15;9.07;;;3.53;;
48363;SDS011;34170;54.364;18.582;2023-06-22T13:44:43;10.05;;;3.25;;
48363;SDS011;34170;54.364;18.582;2023-06-22T13:47:11;9.10;;;3.00;;
48363;SDS011;34170;54.364;18.582;2023-06-22T13:49:38;6.10;;;2.20;;
48363;SDS011;34170;54.364;18.582;2023-06-22T13:52:06;6.38;;;2.53;;
48363;SDS011;34170;54.364;18.582;2023-06-22T13:57:05;12.20;;;2.72;;
48363;SDS011;34170;54.364;18.582;2023-06-22T13:59:34;6.28;;;2.80;;
48363;SDS011;34170;54.364;18.582;2023-06-22T14:02:02;11.32;;;2.97;;
48363;SDS011;34170;54.364;18.582;2023-06-22T14:04:30;6.50;;;2.63;;
48363;SDS011;34170;54.364;18.582;2023-06-22T14:06:58;9.93;;;2.55;;
48363;SDS011;34170;54.364;18.582;2023-06-22T14:09:26;11.05;;;2.92;;
48363;SDS011;34170;54.364;18.582;2023-06-22T14:11:54;9.25;;;2.58;;
48363;SDS011;34170;54.364;18.582;2023-06-22T14:14:22;11.18;;;2.70;;
48363;SDS011;34170;54.364;18.582;2023-06-22T14:16:50;7.85;;;2.60;;
48363;SDS011;34170;54.364;18.582;2023-06-22T14:19:18;5.90;;;2.47;;
48363;SDS011;34170;54.364;18.582;2023-06-22T14:21:46;7.38;;;2.65;;
48363;SDS011;34170;54.364;18.582;2023-06-22T14:24:13;10.38;;;2.58;;
48363;SDS011;34170;54.364;18.582;2023-06-22T14:26:41;8.45;;;2.70;;
48363;SDS011;34170;54.364;18.582;2023-06-22T14:29:08;7.57;;;3.28;;
48363;SDS011;34170;54.364;18.582;2023-06-22T14:31:36;6.28;;;2.53;;
48363;SDS011;34170;54.364;18.582;2023-06-22T14:34:04;6.95;;;2.60;;
48363;SDS011;34170;54.364;18.582;2023-06-22T14:36:33;7.25;;;2.47;;
48363;SDS011;34170;54.364;18.582;2023-06-22T14:39:00;8.40;;;2.70;;
48363;SDS011;34170;54.364;18.582;2023-06-22T14:41:29;7.07;;;2.28;;
48363;SDS011;34170;54.364;18.582;2023-06-22T14:43:57;7.85;;;2.83;;
48363;SDS011;34170;54.364;18.582;2023-06-22T14:46:25;12.05;;;2.50;;
48363;SDS011;34170;54.364;18.582;2023-06-22T14:48:54;8.25;;;2.97;;
48363;SDS011;34170;54.364;18.582;2023-06-22T14:51:22;7.53;;;2.80;;
48363;SDS011;34170;54.364;18.582;2023-06-22T14:53:49;6.53;;;2.35;;
48363;SDS011;34170;54.364;18.582;2023-06-22T14:56:17;10.10;;;2.70;;
48363;SDS011;34170;54.364;18.582;2023-06-22T14:58:45;6.65;;;3.28;;